Time;durP1;ratioP1;P1;durP2;ratioP2;P2;SDS_P1;SDS_P2;PMS_P1;PMS_P2;Temp;Humidity;BMP_temperature;BMP_pressure;BME280_temperature;BME280_humidity;BME280_pressure;Samples;Min_cycle;Max_cycle;Signal;HPM_P1;HPM_P2
2021/01/19 00:00:06;;;;;;;3.90;2.17;;;4.30;50.70;;;;;;5039379;28;20318;-79
2021/01/19 00:02:32;;;;;;;6.30;1.95;;;4.30;49.80;;;;;;5037382;28;20290;-80
2021/01/19 00:05:00;;;;;;;2.28;2.08;;;4.30;49.90;;;;;;5038760;28;20294;-78
2021/01/19 00:07:27;;;;;;;3.30;2.03;;;4.30;49.90;;;;;;5038207;28;20246;-78
2021/01/19 00:09:53;;;;;;;2.92;1.90;;;4.30;50.00;;;;;;5040008;28;20208;-78
2021/01/19 00:12:20;;;;;;;2.28;2.05;;;4.30;50.00;;;;;;5039233;28;20813;-78
2021/01/19 00:14:47;;;;;;;4.32;2.08;;;4.20;50.00;;;;;;5038032;28;20294;-79
2021/01/19 00:17:13;;;;;;;2.60;1.75;;;4.30;50.10;;;;;;5042302;28;20290;-80
2021/01/19 00:19:40;;;;;;;4.60;2.00;;;4.30;50.00;;;;;;5051111;28;20239;-80
2021/01/19 00:22:06;;;;;;;2.67;2.00;;;4.30;50.00;;;;;;5051933;28;20207;-78
2021/01/19 00:24:33;;;;;;;1.70;1.60;;;4.30;50.10;;;;;;5045815;28;20425;-77
2021/01/19 00:26:59;;;;;;;2.88;2.13;;;4.30;50.00;;;;;;5039568;28;20259;-76
2021/01/19 00:29:26;;;;;;;3.90;1.95;;;4.30;50.10;;;;;;5039416;28;20302;-79
2021/01/19 00:31:53;;;;;;;2.92;1.92;;;4.30;50.00;;;;;;5038841;28;20334;-79
2021/01/19 00:34:39;;;;;;;3.25;1.98;;;4.30;50.00;;;;;;5034471;28;20234;-79
2021/01/19 00:37:08;;;;;;;3.20;2.55;;;4.30;50.00;;;;;;5036090;28;20246;-80
2021/01/19 00:39:35;;;;;;;2.55;2.00;;;4.30;49.90;;;;;;5038013;28;20328;-80
2021/01/19 00:42:15;;;;;;;3.20;2.10;;;4.30;50.00;;;;;;5037925;28;20213;-79
2021/01/19 00:44:42;;;;;;;3.05;2.05;;;4.30;50.00;;;;;;5035549;28;20215;-80
2021/01/19 00:47:09;;;;;;;4.07;1.90;;;4.30;50.00;;;;;;5036512;28;20658;-78
2021/01/19 00:49:35;;;;;;;2.83;2.03;;;4.30;50.70;;;;;;5036770;28;20217;-79
2021/01/19 00:52:02;;;;;;;6.80;2.53;;;4.30;50.30;;;;;;5040862;28;20290;-80
2021/01/19 00:54:28;;;;;;;4.22;2.55;;;4.20;51.30;;;;;;5040442;28;20223;-78
2021/01/19 00:56:54;;;;;;;2.30;2.10;;;4.30;50.70;;;;;;5036114;28;20290;-80
2021/01/19 00:59:21;;;;;;;7.20;2.25;;;4.20;50.80;;;;;;5039022;28;20274;-80
2021/01/19 01:01:49;;;;;;;3.08;2.60;;;4.30;51.30;;;;;;5037074;28;20322;-79
2021/01/19 01:04:16;;;;;;;7.63;2.70;;;4.20;51.10;;;;;;5044500;28;20274;-80
2021/01/19 01:06:43;;;;;;;4.75;2.85;;;4.20;51.20;;;;;;5053409;28;20369;-79
2021/01/19 01:09:09;;;;;;;4.25;2.92;;;4.20;51.10;;;;;;5047231;28;20639;-79
2021/01/19 01:11:37;;;;;;;6.47;2.47;;;4.10;51.50;;;;;;5046085;28;20231;-79
2021/01/19 01:14:05;;;;;;;5.25;3.60;;;4.10;52.10;;;;;;5050182;28;20203;-79
2021/01/19 01:16:31;;;;;;;5.65;2.67;;;4.10;51.70;;;;;;5047722;28;20317;-79
2021/01/19 01:18:58;;;;;;;4.63;2.90;;;4.10;51.80;;;;;;5048292;28;20276;-78
2021/01/19 01:21:25;;;;;;;6.75;2.85;;;4.20;51.40;;;;;;5050165;28;20258;-79
2021/01/19 01:23:51;;;;;;;8.18;2.90;;;4.10;51.60;;;;;;5044175;28;20239;-80
2021/01/19 01:26:20;;;;;;;4.18;3.10;;;4.10;51.90;;;;;;5040521;28;20302;-80
2021/01/19 01:28:47;;;;;;;4.32;3.33;;;4.10;52.70;;;;;;5037521;28;20207;-80
2021/01/19 01:31:19;;;;;;;4.03;3.20;;;4.10;52.90;;;;;;5035419;28;20234;-78
2021/01/19 01:33:45;;;;;;;3.15;2.80;;;4.10;52.20;;;;;;5035695;28;20207;-79
2021/01/19 01:36:12;;;;;;;6.18;3.05;;;4.10;52.70;;;;;;5034826;28;20247;-79
2021/01/19 01:38:39;;;;;;;7.15;3.22;;;4.10;52.20;;;;;;5036945;28;20750;-80
2021/01/19 01:41:12;;;;;;;4.18;2.50;;;4.00;52.70;;;;;;5035855;28;20721;-79
2021/01/19 01:43:39;;;;;;;5.97;3.70;;;4.00;53.10;;;;;;5038304;28;20251;-79
2021/01/19 01:46:05;;;;;;;4.15;2.90;;;4.00;52.90;;;;;;5036790;28;20315;-79
2021/01/19 01:48:32;;;;;;;4.45;2.80;;;4.00;53.30;;;;;;5037448;28;20213;-79
2021/01/19 01:50:58;;;;;;;7.15;3.70;;;3.90;54.00;;;;;;5041325;28;20223;-78
2021/01/19 01:53:26;;;;;;;6.65;4.05;;;3.90;54.40;;;;;;5043244;28;20227;-78
2021/01/19 01:55:53;;;;;;;5.68;3.35;;;3.80;54.30;;;;;;5043005;28;20230;-78
2021/01/19 01:58:19;;;;;;;5.90;3.40;;;3.80;54.30;;;;;;5035871;28;20302;-79
2021/01/19 02:00:49;;;;;;;7.60;3.42;;;3.90;54.40;;;;;;5037026;28;20234;-78
2021/01/19 02:03:16;;;;;;;8.68;3.15;;;3.80;54.30;;;;;;5038117;28;20230;-78
2021/01/19 02:05:42;;;;;;;4.35;3.58;;;3.80;54.30;;;;;;5035128;28;20207;-80
2021/01/19 02:08:19;;;;;;;12.25;3.45;;;3.80;54.30;;;;;;5033782;28;20231;-79
2021/01/19 02:10:58;;;;;;;4.80;3.35;;;3.80;54.30;;;;;;5035069;28;20210;-79
2021/01/19 02:13:33;;;;;;;6.00;3.58;;;3.90;54.40;;;;;;5039487;28;20211;-79
2021/01/19 02:16:11;;;;;;;4.47;3.05;;;3.80;54.30;;;;;;5034664;28;20270;-79
2021/01/19 02:18:49;;;;;;;3.80;3.22;;;3.80;54.30;;;;;;5038983;28;20202;-78
2021/01/19 02:22:04;;;;;;;3.58;2.28;;;3.70;54.20;;;;;;5036733;28;20223;-77
2021/01/19 02:24:35;;;;;;;5.55;2.53;;;3.80;54.30;;;;;;5038015;28;20211;-78
2021/01/19 02:27:14;;;;;;;4.53;2.95;;;3.80;54.30;;;;;;5037260;28;20325;-78
2021/01/19 02:30:02;;;;;;;3.05;2.60;;;3.70;53.90;;;;;;5038615;28;20222;-78
2021/01/19 02:32:34;;;;;;;4.97;2.67;;;3.70;53.40;;;;;;5038960;28;20279;-80
2021/01/19 02:35:10;;;;;;;2.70;2.05;;;3.80;52.90;;;;;;5053775;28;20195;-79
2021/01/19 02:37:43;;;;;;;2.70;2.20;;;3.80;52.30;;;;;;5051849;28;20242;-80
2021/01/19 02:40:11;;;;;;;6.78;2.53;;;3.70;52.40;;;;;;5042853;28;20330;-80
2021/01/19 02:42:43;;;;;;;2.90;2.47;;;3.70;52.40;;;;;;5034611;28;20442;-79
2021/01/19 02:45:11;;;;;;;3.22;1.92;;;3.70;52.10;;;;;;5033618;28;20219;-79
2021/01/19 02:47:39;;;;;;;4.38;2.42;;;3.80;51.70;;;;;;5035130;28;20778;-78
2021/01/19 02:50:08;;;;;;;2.17;1.98;;;3.70;50.90;;;;;;5034689;28;20223;-80
2021/01/19 02:52:36;;;;;;;2.50;2.00;;;3.80;50.90;;;;;;5034807;28;20270;-79
2021/01/19 02:55:03;;;;;;;5.63;2.35;;;3.70;50.60;;;;;;5039018;28;20298;-79
2021/01/19 02:57:58;;;;;;;3.45;2.00;;;3.70;50.70;;;;;;5035747;28;20223;-79
2021/01/19 03:00:30;;;;;;;3.58;2.05;;;3.70;50.50;;;;;;5038441;28;20227;-79
2021/01/19 03:03:00;;;;;;;3.63;2.08;;;3.70;50.40;;;;;;5037044;28;20294;-78
2021/01/19 03:05:28;;;;;;;2.95;2.05;;;3.60;50.60;;;;;;5038879;28;20263;-79
2021/01/19 03:07:55;;;;;;;2.63;1.90;;;3.70;50.50;;;;;;5039400;28;20309;-79
2021/01/19 03:10:25;;;;;;;3.90;2.20;;;3.60;50.40;;;;;;5034337;28;20266;-78
2021/01/19 03:12:52;;;;;;;2.83;1.73;;;3.60;50.20;;;;;;5041053;28;20238;-78
2021/01/19 03:15:19;;;;;;;2.50;1.80;;;3.60;49.80;;;;;;5038416;28;20211;-78
2021/01/19 03:17:45;;;;;;;2.70;2.50;;;3.60;50.60;;;;;;5033571;28;20247;-79
2021/01/19 03:20:14;;;;;;;3.55;2.10;;;3.60;50.40;;;;;;5036287;28;20310;-79
2021/01/19 03:22:41;;;;;;;1.85;1.70;;;3.60;50.10;;;;;;5035262;28;20632;-79
2021/01/19 03:25:08;;;;;;;4.20;2.22;;;3.50;49.70;;;;;;5037829;28;20725;-79
2021/01/19 03:27:35;;;;;;;8.32;2.08;;;3.50;50.00;;;;;;5036528;28;20829;-79
2021/01/19 03:30:02;;;;;;;6.32;1.90;;;3.50;49.90;;;;;;5037063;28;20282;-78
2021/01/19 03:32:28;;;;;;;2.10;1.90;;;3.50;49.80;;;;;;5038512;28;20238;-79
2021/01/19 03:34:55;;;;;;;3.42;1.65;;;3.60;50.10;;;;;;5036548;28;20286;-79
2021/01/19 03:37:22;;;;;;;1.85;1.65;;;3.50;50.20;;;;;;5036317;28;20223;-79
2021/01/19 03:39:49;;;;;;;4.35;1.75;;;3.50;49.90;;;;;;5037069;28;20246;-79
2021/01/19 03:42:15;;;;;;;3.50;2.00;;;3.60;49.40;;;;;;5036715;28;20223;-78
2021/01/19 03:44:41;;;;;;;2.25;1.85;;;3.70;49.50;;;;;;5036789;28;20270;-80
2021/01/19 03:47:08;;;;;;;3.03;2.40;;;3.80;48.80;;;;;;5038961;28;20223;-78
2021/01/19 03:49:34;;;;;;;1.60;1.50;;;3.90;48.30;;;;;;5042247;28;20254;-77
2021/01/19 03:52:01;;;;;;;4.45;2.38;;;3.90;48.40;;;;;;5044229;28;20263;-80
2021/01/19 03:54:28;;;;;;;6.05;1.95;;;3.90;47.70;;;;;;5042843;28;20246;-78
2021/01/19 03:56:54;;;;;;;2.65;1.67;;;4.00;47.70;;;;;;5035873;28;20257;-79
2021/01/19 03:59:21;;;;;;;2.75;2.03;;;4.00;47.60;;;;;;5036318;28;20310;-77
2021/01/19 04:01:49;;;;;;;1.67;1.50;;;4.00;47.60;;;;;;5046995;28;20258;-77
2021/01/19 04:04:16;;;;;;;2.47;1.88;;;4.00;47.50;;;;;;5056454;28;20256;-77
2021/01/19 04:06:42;;;;;;;7.35;1.80;;;4.10;47.30;;;;;;5053704;28;20730;-76
2021/01/19 04:09:09;;;;;;;5.10;1.60;;;4.10;47.40;;;;;;5055139;28;20203;-76
2021/01/19 04:11:36;;;;;;;1.95;1.45;;;4.10;46.70;;;;;;5056095;28;20203;-76
2021/01/19 04:14:02;;;;;;;1.33;1.23;;;4.20;46.40;;;;;;5055446;28;20196;-77
2021/01/19 04:16:29;;;;;;;2.78;1.60;;;4.20;46.50;;;;;;5054653;28;20219;-77
2021/01/19 04:18:55;;;;;;;2.38;1.73;;;4.20;46.30;;;;;;5054914;28;20207;-77
2021/01/19 04:21:23;;;;;;;3.72;1.80;;;4.20;46.20;;;;;;5053335;28;20246;-78
2021/01/19 04:23:50;;;;;;;2.20;1.50;;;4.20;46.20;;;;;;5049257;28;20238;-78
2021/01/19 04:26:16;;;;;;;4.45;1.42;;;4.10;46.00;;;;;;5039174;28;20729;-77
2021/01/19 04:28:43;;;;;;;7.22;1.95;;;4.20;45.50;;;;;;5039773;28;20238;-76
2021/01/19 04:31:09;;;;;;;2.95;1.25;;;4.20;45.40;;;;;;5045695;28;20241;-78
2021/01/19 04:33:36;;;;;;;1.42;1.25;;;4.20;45.80;;;;;;5042370;28;20208;-80
2021/01/19 04:36:02;;;;;;;2.17;1.92;;;4.30;45.90;;;;;;5041359;28;20290;-79
2021/01/19 04:38:29;;;;;;;1.77;1.67;;;4.30;45.30;;;;;;5043023;28;20295;-78
2021/01/19 04:40:56;;;;;;;2.67;1.77;;;4.30;45.30;;;;;;5052196;28;20211;-77
2021/01/19 04:43:24;;;;;;;1.90;1.80;;;4.30;45.60;;;;;;5054487;28;20207;-79
2021/01/19 04:45:52;;;;;;;2.25;1.80;;;4.20;45.30;;;;;;5047672;28;20207;-79
2021/01/19 04:48:20;;;;;;;2.10;1.70;;;4.20;45.60;;;;;;5049129;28;20238;-77
2021/01/19 04:50:47;;;;;;;1.88;1.20;;;4.20;45.20;;;;;;5050568;28;20706;-78
2021/01/19 04:53:15;;;;;;;1.75;1.45;;;4.20;45.20;;;;;;5051123;28;20207;-76
2021/01/19 04:55:51;;;;;;;2.38;1.55;;;4.20;45.20;;;;;;5045696;28;20220;-77
2021/01/19 04:58:22;;;;;;;5.22;1.23;;;4.20;45.20;;;;;;5044652;28;20238;-78
2021/01/19 05:01:04;;;;;;;1.80;1.50;;;4.20;45.60;;;;;;5043789;28;20250;-78
2021/01/19 05:03:39;;;;;;;4.50;1.70;;;4.20;45.30;;;;;;5038400;28;20558;-78
2021/01/19 05:06:53;;;;;;;3.53;1.58;;;4.20;45.40;;;;;;5037955;28;20198;-77
2021/01/19 05:09:22;;;;;;;4.07;1.30;;;4.20;45.20;;;;;;5036425;28;20231;-76
2021/01/19 05:11:50;;;;;;;2.30;1.70;;;4.20;45.30;;;;;;5038902;28;20294;-78
2021/01/19 05:14:21;;;;;;;2.55;1.50;;;4.20;45.90;;;;;;5039727;28;20560;-78
2021/01/19 05:16:49;;;;;;;3.90;1.92;;;4.10;45.70;;;;;;5039594;28;20235;-76
2021/01/19 05:19:17;;;;;;;3.20;1.50;;;4.10;45.90;;;;;;5040363;28;20237;-77
2021/01/19 05:21:46;;;;;;;1.48;1.27;;;4.10;46.20;;;;;;5044400;28;20242;-78
2021/01/19 05:24:13;;;;;;;1.73;1.55;;;4.10;46.20;;;;;;5042157;28;20551;-78
2021/01/19 05:26:42;;;;;;;2.80;1.75;;;4.00;46.40;;;;;;5039137;28;20265;-78
2021/01/19 05:29:08;;;;;;;6.28;1.80;;;3.90;46.60;;;;;;5040608;28;20234;-78
2021/01/19 05:31:35;;;;;;;2.63;1.50;;;3.90;46.60;;;;;;5038990;28;20287;-78
2021/01/19 05:34:05;;;;;;;2.05;1.83;;;3.90;47.00;;;;;;5040580;28;20239;-78
2021/01/19 05:36:40;;;;;;;5.68;2.03;;;3.80;46.90;;;;;;5038393;28;20223;-78
2021/01/19 05:39:08;;;;;;;5.97;1.55;;;3.80;47.10;;;;;;5040117;28;20505;-78
2021/01/19 05:41:38;;;;;;;2.42;1.50;;;3.70;47.60;;;;;;5040008;28;20259;-78
2021/01/19 05:44:19;;;;;;;2.00;1.40;;;3.70;47.60;;;;;;5038714;28;20233;-77
2021/01/19 05:46:49;;;;;;;3.20;1.83;;;3.70;47.90;;;;;;5042277;28;20231;-77
2021/01/19 05:49:21;;;;;;;2.00;1.80;;;3.70;47.90;;;;;;5051604;28;20207;-77
2021/01/19 05:51:50;;;;;;;4.97;1.58;;;3.70;47.90;;;;;;5051986;28;20226;-77
2021/01/19 05:54:27;;;;;;;4.00;1.85;;;3.70;47.90;;;;;;5053460;28;20199;-78
2021/01/19 05:57:02;;;;;;;2.63;1.60;;;3.80;47.90;;;;;;5048640;28;20241;-78
2021/01/19 05:59:31;;;;;;;2.55;1.98;;;3.70;48.00;;;;;;5040536;28;20244;-77
2021/01/19 06:02:03;;;;;;;6.88;1.67;;;3.70;47.70;;;;;;5038675;28;20381;-77
2021/01/19 06:04:39;;;;;;;4.97;1.80;;;3.80;48.10;;;;;;5040228;28;20289;-78
2021/01/19 06:07:07;;;;;;;3.47;1.52;;;3.80;48.00;;;;;;5044983;28;20280;-77
2021/01/19 06:09:34;;;;;;;7.10;1.55;;;3.80;47.80;;;;;;5037240;28;20253;-78
2021/01/19 06:12:01;;;;;;;2.10;1.38;;;3.90;47.60;;;;;;5037188;28;20238;-77
2021/01/19 06:14:29;;;;;;;2.80;1.60;;;3.80;47.50;;;;;;5037511;28;20234;-78
2021/01/19 06:17:10;;;;;;;2.85;1.65;;;3.80;47.80;;;;;;5036273;28;20222;-77
2021/01/19 06:19:38;;;;;;;4.22;1.90;;;3.80;48.00;;;;;;5038564;28;20226;-77
2021/01/19 06:22:07;;;;;;;2.40;1.60;;;3.80;47.90;;;;;;5039326;28;20438;-79
2021/01/19 06:24:34;;;;;;;1.90;1.58;;;3.80;47.80;;;;;;5039114;28;20196;-78
2021/01/19 06:27:01;;;;;;;2.40;1.60;;;3.90;47.60;;;;;;5053494;28;20251;-78
2021/01/19 06:29:28;;;;;;;3.00;1.50;;;3.90;47.50;;;;;;5050812;28;20515;-79
2021/01/19 06:31:59;;;;;;;5.38;1.88;;;3.80;47.60;;;;;;5039718;28;20253;-77
2021/01/19 06:34:28;;;;;;;3.25;1.80;;;3.90;47.50;;;;;;5041191;28;20222;-79
2021/01/19 06:36:55;;;;;;;7.72;2.00;;;3.90;47.40;;;;;;5037542;28;20253;-79
2021/01/19 06:39:31;;;;;;;4.57;2.05;;;4.00;47.50;;;;;;5038988;28;20423;-79
2021/01/19 07:02:38;;;;;;;2.45;1.63;;;4.00;47.10;;;;;;5086748;28;20229;-80
2021/01/19 07:05:10;;;;;;;3.35;1.80;;;4.00;47.10;;;;;;5085927;28;20240;-78
2021/01/19 07:07:41;;;;;;;2.60;1.50;;;4.10;47.10;;;;;;5085036;28;20213;-78
2021/01/19 07:10:13;;;;;;;2.30;1.35;;;4.00;47.10;;;;;;5083364;28;20225;-78
2021/01/19 07:12:58;;;;;;;4.13;1.52;;;4.00;47.40;;;;;;5083407;28;20194;-78
2021/01/19 09:27:10;;;;;;;1.70;1.60;;;4.50;46.60;;;;;;4373687;22;20481;-81
2021/01/19 09:46:36;;;;;;;3.83;1.80;;;4.60;45.50;;;;;;4968228;28;20207;-81
2021/01/19 10:41:00;;;;;;;6.60;2.08;;;5.40;45.00;;;;;;4979158;28;20695;-78
2021/01/19 10:43:28;;;;;;;2.75;1.70;;;5.50;44.30;;;;;;4973820;28;20228;-77
2021/01/19 10:45:54;;;;;;;1.60;1.48;;;5.60;44.40;;;;;;4976759;28;20205;-77
2021/01/19 10:48:22;;;;;;;5.15;1.98;;;5.50;44.50;;;;;;4976145;28;20221;-77
2021/01/19 10:50:49;;;;;;;6.13;1.77;;;5.50;44.90;;;;;;4975145;28;20205;-77
2021/01/19 10:53:26;;;;;;;5.05;2.53;;;5.50;44.60;;;;;;4975259;28;20617;-76
2021/01/19 10:55:52;;;;;;;3.00;2.30;;;5.50;45.20;;;;;;4975012;28;20275;-77
2021/01/19 10:58:20;;;;;;;4.82;2.30;;;5.40;44.40;;;;;;4974989;28;20229;-77
2021/01/19 11:00:46;;;;;;;5.53;2.97;;;5.50;44.70;;;;;;4976707;28;20221;-77
2021/01/19 11:03:13;;;;;;;6.32;1.80;;;5.50;45.00;;;;;;4974876;28;20463;-77
2021/01/19 11:05:39;;;;;;;2.17;1.40;;;5.50;44.70;;;;;;4977194;28;20577;-77
2021/01/19 11:08:05;;;;;;;4.78;1.95;;;5.50;44.80;;;;;;4974755;28;20243;-78
2021/01/19 11:10:32;;;;;;;4.53;2.70;;;5.40;44.50;;;;;;4975061;28;20217;-76
2021/01/19 11:12:59;;;;;;;6.50;2.40;;;5.40;44.70;;;;;;4976527;28;20293;-77
2021/01/19 11:15:26;;;;;;;6.60;2.20;;;5.40;45.00;;;;;;4987257;28;20197;-75
2021/01/19 11:17:54;;;;;;;6.55;2.53;;;5.40;44.90;;;;;;4980473;28;20237;-77
2021/01/19 11:20:21;;;;;;;6.10;2.10;;;5.30;45.30;;;;;;4979266;28;20662;-77
2021/01/19 11:22:48;;;;;;;4.97;2.55;;;5.40;45.50;;;;;;4974134;28;20232;-77
2021/01/19 11:25:16;;;;;;;2.42;2.22;;;5.40;46.20;;;;;;4976239;28;20216;-77
2021/01/19 11:27:42;;;;;;;6.10;2.42;;;5.40;46.20;;;;;;4976496;28;20213;-77
2021/01/19 11:30:10;;;;;;;8.00;1.95;;;5.40;46.20;;;;;;4973696;28;20236;-78
2021/01/19 11:32:37;;;;;;;3.25;2.08;;;5.30;46.10;;;;;;4968334;28;20554;-77
2021/01/19 11:35:04;;;;;;;6.47;2.72;;;5.30;46.10;;;;;;4977191;28;20293;-77
2021/01/19 11:37:31;;;;;;;3.75;2.33;;;5.40;46.20;;;;;;4979966;28;20205;-78
2021/01/19 11:39:57;;;;;;;3.97;2.05;;;5.40;46.20;;;;;;4981395;28;20240;-78
2021/01/19 11:42:24;;;;;;;6.35;1.80;;;5.50;46.30;;;;;;4980986;28;20237;-77
2021/01/19 11:44:50;;;;;;;8.10;2.92;;;5.50;46.30;;;;;;4975246;28;20564;-77
2021/01/19 11:47:17;;;;;;;3.28;1.45;;;5.40;46.40;;;;;;4976284;28;20205;-76
2021/01/19 11:49:44;;;;;;;3.20;2.22;;;5.40;46.30;;;;;;4978004;28;20620;-76
2021/01/19 11:52:10;;;;;;;3.92;2.53;;;5.40;46.70;;;;;;4978550;28;20268;-77
2021/01/19 11:54:37;;;;;;;2.08;1.90;;;5.50;46.70;;;;;;4978203;28;20526;-77
2021/01/19 11:57:04;;;;;;;4.53;2.40;;;5.50;47.30;;;;;;4976915;28;20310;-78
2021/01/19 11:59:30;;;;;;;5.25;1.98;;;5.60;46.40;;;;;;4978192;28;20624;-77
2021/01/19 12:01:57;;;;;;;6.35;1.95;;;5.60;46.80;;;;;;4976136;28;20256;-77
2021/01/19 12:04:24;;;;;;;2.80;1.95;;;5.60;46.40;;;;;;4977242;28;20256;-76
2021/01/19 12:06:51;;;;;;;6.93;1.88;;;5.40;46.20;;;;;;4976891;28;20240;-77
2021/01/19 12:09:18;;;;;;;2.55;2.00;;;5.40;47.70;;;;;;4973575;28;20232;-77
2021/01/19 12:11:48;;;;;;;9.13;2.30;;;5.30;48.30;;;;;;4977860;28;20267;-77
2021/01/19 12:14:14;;;;;;;2.80;1.85;;;5.30;49.10;;;;;;4976885;28;20245;-77
2021/01/19 12:16:41;;;;;;;3.45;1.88;;;5.30;50.40;;;;;;4978351;28;20234;-77
2021/01/19 12:19:10;;;;;;;8.45;1.70;;;5.30;51.30;;;;;;4979022;28;20225;-78
2021/01/19 12:21:37;;;;;;;3.55;2.38;;;5.20;51.80;;;;;;4979658;28;20305;-77
2021/01/19 12:24:06;;;;;;;5.88;2.97;;;5.20;53.50;;;;;;4983920;28;20288;-79
2021/01/19 12:26:32;;;;;;;2.55;2.20;;;5.10;54.40;;;;;;4981645;28;20572;-78
2021/01/19 12:28:58;;;;;;;3.90;2.08;;;5.00;56.00;;;;;;4983736;28;20292;-79
2021/01/19 12:31:25;;;;;;;3.42;2.42;;;5.00;55.30;;;;;;4985538;28;20261;-78
2021/01/19 12:33:51;;;;;;;2.30;1.80;;;5.00;55.30;;;;;;4983309;28;20728;-78
2021/01/19 12:36:19;;;;;;;4.10;2.47;;;5.10;55.40;;;;;;4980054;28;20288;-79
2021/01/19 12:38:46;;;;;;;4.93;2.30;;;5.10;56.00;;;;;;4981964;28;20296;-79
2021/01/19 12:41:14;;;;;;;4.38;2.65;;;5.10;56.10;;;;;;4979846;28;20312;-77
2021/01/19 12:43:41;;;;;;;4.60;2.05;;;5.20;56.30;;;;;;4983306;28;20209;-78
2021/01/19 12:46:10;;;;;;;3.40;2.30;;;5.20;57.00;;;;;;4976121;28;20229;-79
2021/01/19 12:48:36;;;;;;;2.90;2.40;;;5.30;56.60;;;;;;4975437;28;20374;-78
2021/01/19 12:51:02;;;;;;;4.28;2.20;;;5.30;55.60;;;;;;4977977;28;20205;-77
2021/01/19 12:53:29;;;;;;;5.40;2.15;;;5.30;56.30;;;;;;4977236;28;20220;-77
2021/01/19 12:55:55;;;;;;;4.20;2.83;;;5.30;55.60;;;;;;4977256;28;20292;-76
2021/01/19 12:58:23;;;;;;;2.85;1.88;;;5.40;55.70;;;;;;4984015;28;20252;-78
2021/01/19 13:00:49;;;;;;;4.40;2.40;;;5.40;55.70;;;;;;4980817;28;20528;-79
2021/01/19 13:03:15;;;;;;;7.00;2.22;;;5.40;55.70;;;;;;4979292;28;20206;-79
2021/01/19 13:05:42;;;;;;;6.15;2.58;;;5.20;55.50;;;;;;4981636;28;20209;-81
2021/01/19 13:08:08;;;;;;;3.00;2.30;;;5.30;55.60;;;;;;4992871;28;20671;-82
2021/01/19 13:10:35;;;;;;;3.20;2.00;;;5.20;55.50;;;;;;4983759;28;20296;-79
2021/01/19 13:13:01;;;;;;;6.22;2.38;;;5.30;55.60;;;;;;4981575;28;20228;-80
2021/01/19 13:15:28;;;;;;;4.28;2.47;;;5.30;55.60;;;;;;4981137;28;20244;-79
2021/01/19 13:17:55;;;;;;;4.55;2.15;;;5.40;55.70;;;;;;4979215;28;20244;-79
2021/01/19 13:20:21;;;;;;;5.40;2.53;;;5.40;54.70;;;;;;4978388;28;20221;-77
2021/01/19 13:22:47;;;;;;;7.07;2.67;;;5.40;54.40;;;;;;4977532;28;20319;-80
2021/01/19 13:25:14;;;;;;;3.90;1.98;;;5.40;55.70;;;;;;4978394;28;20656;-78
2021/01/19 13:27:41;;;;;;;6.00;2.15;;;5.50;53.80;;;;;;4976257;28;20300;-79
2021/01/19 13:30:08;;;;;;;3.03;2.28;;;5.60;53.90;;;;;;4978221;28;20208;-78
2021/01/19 13:32:36;;;;;;;4.13;1.95;;;5.40;53.50;;;;;;4977266;28;20203;-79
2021/01/19 13:35:02;;;;;;;5.80;2.17;;;5.40;55.30;;;;;;4976241;28;20242;-75
2021/01/19 13:37:28;;;;;;;5.15;2.13;;;5.20;55.50;;;;;;4974891;28;20284;-76
2021/01/19 13:39:55;;;;;;;5.80;2.67;;;5.10;56.10;;;;;;4974639;28;20237;-77
2021/01/19 13:42:21;;;;;;;5.47;2.50;;;5.10;55.40;;;;;;4980714;28;20243;-79
2021/01/19 13:44:48;;;;;;;4.60;2.05;;;5.10;55.80;;;;;;4976683;28;20207;-77
2021/01/19 13:47:14;;;;;;;4.97;2.55;;;5.00;57.20;;;;;;4976763;28;20291;-78
2021/01/19 13:49:42;;;;;;;4.63;2.50;;;5.00;57.30;;;;;;4978509;28;20316;-77
2021/01/19 13:52:08;;;;;;;3.35;2.47;;;4.90;57.70;;;;;;4982466;28;20200;-78
2021/01/19 13:54:35;;;;;;;7.53;2.17;;;4.90;58.40;;;;;;4980286;28;20408;-78
2021/01/19 13:57:01;;;;;;;4.68;2.60;;;4.80;59.70;;;;;;4981841;28;20232;-77
2021/01/19 13:59:28;;;;;;;7.82;3.20;;;4.80;60.30;;;;;;4978052;28;20276;-78
2021/01/19 14:01:54;;;;;;;3.65;2.33;;;4.80;62.20;;;;;;4982197;28;20225;-78
2021/01/19 14:04:20;;;;;;;5.20;2.75;;;4.70;62.30;;;;;;4979832;28;20593;-76
2021/01/19 14:06:48;;;;;;;2.55;2.10;;;4.70;63.40;;;;;;4975837;28;20460;-78
2021/01/19 14:09:14;;;;;;;4.72;2.13;;;4.70;63.10;;;;;;4977335;28;20264;-77
2021/01/19 14:11:41;;;;;;;3.55;2.85;;;4.70;63.00;;;;;;4980515;28;20721;-77
2021/01/19 14:14:15;;;;;;;3.17;2.28;;;4.80;63.10;;;;;;4979013;28;20284;-76
2021/01/19 14:16:42;;;;;;;4.85;2.08;;;4.80;61.40;;;;;;4983122;28;20227;-77
2021/01/19 14:19:09;;;;;;;6.15;2.47;;;4.80;61.00;;;;;;4992961;28;20307;-77
2021/01/19 14:21:35;;;;;;;3.65;2.70;;;4.90;60.40;;;;;;4993977;28;20260;-76
2021/01/19 14:24:02;;;;;;;6.72;2.20;;;4.90;61.30;;;;;;4986030;28;20217;-77
2021/01/19 14:26:29;;;;;;;2.97;2.05;;;4.90;61.90;;;;;;4975383;28;20743;-77
2021/01/19 14:28:55;;;;;;;3.55;1.75;;;4.80;63.00;;;;;;4975475;28;20232;-77
2021/01/19 14:31:22;;;;;;;5.40;2.30;;;4.80;64.20;;;;;;4975479;28;20709;-75
2021/01/19 14:33:48;;;;;;;4.10;2.35;;;4.80;64.10;;;;;;4974824;28;20646;-77
2021/01/19 14:36:16;;;;;;;2.75;2.35;;;4.80;64.10;;;;;;4976208;28;20372;-77
2021/01/19 14:38:43;;;;;;;6.53;2.10;;;4.80;65.50;;;;;;4974631;28;20248;-76
2021/01/19 14:41:10;;;;;;;2.80;1.70;;;4.70;65.60;;;;;;4975500;28;20223;-78
2021/01/19 14:43:37;;;;;;;6.00;2.20;;;4.70;66.30;;;;;;4973809;28;20220;-78
2021/01/19 14:46:03;;;;;;;4.38;1.75;;;4.70;67.00;;;;;;4973116;28;20228;-77
2021/01/19 14:48:30;;;;;;;5.93;2.10;;;4.80;66.40;;;;;;4975165;28;20240;-77
2021/01/19 14:50:56;;;;;;;4.85;2.13;;;4.80;66.40;;;;;;4976742;28;20217;-77
2021/01/19 14:53:23;;;;;;;4.07;2.45;;;4.80;66.10;;;;;;4975592;28;20216;-78
2021/01/19 14:55:49;;;;;;;2.50;1.83;;;4.80;66.20;;;;;;4973967;28;20205;-76
2021/01/19 14:58:16;;;;;;;4.65;1.52;;;4.70;65.10;;;;;;4967465;28;20241;-76
2021/01/19 15:00:43;;;;;;;4.03;1.88;;;4.70;64.10;;;;;;4970535;28;20213;-77
2021/01/19 15:03:09;;;;;;;2.55;1.92;;;4.80;64.20;;;;;;4973385;28;20217;-77
2021/01/19 15:05:35;;;;;;;3.17;1.70;;;4.80;64.20;;;;;;4972761;28;20572;-76
2021/01/19 15:08:02;;;;;;;3.92;1.80;;;4.80;63.80;;;;;;4954806;28;20320;-76
2021/01/19 15:10:29;;;;;;;3.30;2.00;;;4.80;62.50;;;;;;4963001;28;20205;-77
2021/01/19 15:12:55;;;;;;;5.22;1.70;;;4.80;62.20;;;;;;4972584;28;20300;-77
2021/01/19 15:15:23;;;;;;;4.20;1.80;;;4.80;61.90;;;;;;4973689;28;20219;-77
2021/01/19 15:17:51;;;;;;;4.40;1.40;;;4.80;61.60;;;;;;4977224;28;20271;-77
2021/01/19 15:20:18;;;;;;;2.40;1.60;;;4.90;60.90;;;;;;4975816;28;20296;-77
2021/01/19 15:22:44;;;;;;;2.33;1.80;;;4.90;60.40;;;;;;4964808;28;20235;-77
2021/01/19 15:25:12;;;;;;;3.42;1.70;;;4.90;60.40;;;;;;4979426;28;20209;-78
2021/01/19 15:27:38;;;;;;;3.72;2.20;;;4.90;60.70;;;;;;4976486;28;20209;-76
2021/01/19 15:30:06;;;;;;;7.00;1.55;;;4.90;62.10;;;;;;4972337;28;20201;-76
2021/01/19 15:32:33;;;;;;;3.55;2.20;;;4.90;62.70;;;;;;4964464;28;20209;-79
2021/01/19 15:35:00;;;;;;;2.65;1.65;;;4.80;64.10;;;;;;4969357;28;20205;-76
2021/01/19 15:37:26;;;;;;;3.10;1.35;;;4.80;64.10;;;;;;4976787;28;20223;-77
2021/01/19 15:39:53;;;;;;;2.38;1.75;;;4.80;64.10;;;;;;4959166;28;20233;-77
2021/01/19 15:42:19;;;;;;;2.17;1.90;;;4.90;64.20;;;;;;4968700;28;20324;-77
2021/01/19 15:44:46;;;;;;;3.40;1.70;;;4.90;64.20;;;;;;4973352;28;20201;-78
2021/01/19 15:47:12;;;;;;;2.28;1.42;;;5.00;63.70;;;;;;4980149;28;20292;-76
2021/01/19 15:49:40;;;;;;;4.43;1.60;;;5.00;63.30;;;;;;4980492;28;20225;-75
2021/01/19 15:52:06;;;;;;;1.35;1.25;;;5.00;63.10;;;;;;4978494;28;20372;-77
2021/01/19 15:54:33;;;;;;;4.10;1.70;;;5.10;62.80;;;;;;4978918;28;20243;-78
2021/01/19 15:57:00;;;;;;;3.47;1.60;;;5.10;62.20;;;;;;4981215;28;20205;-77
2021/01/19 15:59:28;;;;;;;2.85;1.80;;;5.10;61.40;;;;;;4980142;28;20313;-76
2021/01/19 16:01:55;;;;;;;1.50;1.15;;;5.10;60.80;;;;;;4971550;28;20260;-76
2021/01/19 16:04:22;;;;;;;2.70;1.50;;;5.10;60.00;;;;;;4996825;28;20197;-75
2021/01/19 16:06:50;;;;;;;2.15;1.55;;;5.10;60.00;;;;;;4998137;28;20260;-79
2021/01/19 16:09:16;;;;;;;4.65;2.55;;;5.10;60.70;;;;;;4998248;28;20228;-79
2021/01/19 16:11:44;;;;;;;1.65;1.15;;;5.10;61.10;;;;;;4998050;28;20229;-78
2021/01/19 16:14:11;;;;;;;2.17;1.30;;;5.10;61.00;;;;;;4998336;28;20189;-76
2021/01/19 16:16:37;;;;;;;1.90;1.38;;;5.10;61.60;;;;;;4998040;28;20229;-76
2021/01/19 16:19:05;;;;;;;4.75;1.98;;;5.00;61.90;;;;;;4998734;28;20225;-75
2021/01/19 16:21:35;;;;;;;5.13;2.17;;;5.00;62.60;;;;;;4998939;28;20221;-76
2021/01/19 16:24:02;;;;;;;4.65;2.00;;;5.00;63.30;;;;;;4994622;28;20202;-78
2021/01/19 16:26:30;;;;;;;1.75;1.63;;;5.00;64.30;;;;;;4980023;28;20218;-77
2021/01/19 16:28:58;;;;;;;4.38;2.42;;;4.90;64.30;;;;;;4990740;28;20237;-77
2021/01/19 16:31:25;;;;;;;2.60;2.25;;;4.90;64.20;;;;;;4991644;28;20206;-77
2021/01/19 16:33:52;;;;;;;1.90;1.70;;;4.80;64.80;;;;;;4994133;28;20224;-77
2021/01/19 16:36:26;;;;;;;4.00;2.20;;;4.80;65.70;;;;;;4993946;28;20232;-76
2021/01/19 16:38:53;;;;;;;4.85;2.17;;;4.70;67.10;;;;;;4990816;28;20373;-76
2021/01/19 16:41:22;;;;;;;3.00;1.95;;;4.70;67.50;;;;;;4988888;28;20229;-78
2021/01/19 16:43:48;;;;;;;2.28;1.90;;;4.60;68.30;;;;;;4980776;28;20212;-77